Time;durP1;ratioP1;P1;durP2;ratioP2;P2;SDS_P1;SDS_P2;PMS_P1;PMS_P2;Temp;Humidity;BMP_temperature;BMP_pressure;BME280_temperature;BME280_humidity;BME280_pressure;Samples;Min_cycle;Max_cycle;Signal;HPM_P1;HPM_P2
2023/05/23 00:02:20;;;;;;;22.10;15.63;;;16.30;81.00;;;;;;5093170;28;20404;-73
2023/05/23 00:04:45;;;;;;;22.70;15.00;;;16.40;80.60;;;;;;5093213;28;20386;-72
2023/05/23 00:07:11;;;;;;;20.58;15.25;;;16.40;80.50;;;;;;5093917;28;20393;-73
2023/05/23 00:09:36;;;;;;;20.63;15.30;;;16.40;79.80;;;;;;5093248;28;20394;-73
2023/05/23 00:12:02;;;;;;;25.47;16.17;;;16.50;80.20;;;;;;5092813;28;20421;-73
2023/05/23 00:14:32;;;;;;;21.77;15.10;;;16.50;79.80;;;;;;5094314;28;20445;-73
2023/05/23 00:16:58;;;;;;;19.10;14.80;;;16.50;80.30;;;;;;5093095;28;20386;-73
2023/05/23 00:19:24;;;;;;;23.50;15.57;;;16.40;81.10;;;;;;5094112;28;20456;-73
2023/05/23 00:21:52;;;;;;;21.90;15.27;;;16.40;81.50;;;;;;5094629;28;20461;-72
2023/05/23 00:24:19;;;;;;;22.98;15.98;;;16.40;81.10;;;;;;5095312;28;20374;-73
2023/05/23 00:26:47;;;;;;;22.05;15.30;;;16.40;82.70;;;;;;5095540;28;20392;-73
2023/05/23 00:29:15;;;;;;;22.48;15.93;;;16.40;82.10;;;;;;5094669;28;20962;-73
2023/05/23 00:31:45;;;;;;;19.60;15.00;;;16.40;82.80;;;;;;5094986;28;20397;-73
2023/05/23 00:34:16;;;;;;;21.27;14.70;;;16.40;82.60;;;;;;5095400;28;20412;-72
2023/05/23 00:36:46;;;;;;;22.17;14.75;;;16.40;82.30;;;;;;5093094;28;20417;-72
2023/05/23 00:39:17;;;;;;;18.33;13.00;;;16.40;82.50;;;;;;5092708;28;20390;-73
2023/05/23 00:41:44;;;;;;;20.45;13.73;;;16.30;81.30;;;;;;5092188;28;20786;-73
2023/05/23 00:44:10;;;;;;;20.33;13.43;;;16.30;82.30;;;;;;5092512;28;20376;-73
2023/05/23 00:46:36;;;;;;;19.17;13.02;;;16.30;81.40;;;;;;5092266;28;20378;-73
2023/05/23 00:49:01;;;;;;;13.98;11.60;;;16.30;80.70;;;;;;5092102;28;20420;-72
2023/05/23 00:51:27;;;;;;;12.75;9.93;;;16.30;80.10;;;;;;5091563;28;20894;-72
2023/05/23 00:53:53;;;;;;;11.52;7.70;;;16.20;77.30;;;;;;5091545;28;20835;-73
2023/05/23 00:56:20;;;;;;;13.52;8.27;;;16.10;78.30;;;;;;5089045;28;20393;-72
2023/05/23 00:58:46;;;;;;;10.20;7.27;;;16.00;75.30;;;;;;5091710;28;20400;-72
2023/05/23 01:01:14;;;;;;;9.45;7.00;;;16.00;73.70;;;;;;5092395;28;20401;-71
2023/05/23 01:03:39;;;;;;;10.15;6.70;;;15.90;73.90;;;;;;5092197;28;20426;-72
2023/05/23 01:06:09;;;;;;;9.50;6.60;;;16.00;73.00;;;;;;5091130;28;20393;-74
2023/05/23 01:08:35;;;;;;;7.90;6.70;;;15.90;73.30;;;;;;5095209;28;20736;-73
2023/05/23 01:11:07;;;;;;;8.90;6.50;;;16.00;72.70;;;;;;5089970;28;20399;-72
2023/05/23 01:13:45;;;;;;;9.50;6.00;;;16.00;72.00;;;;;;5084319;28;20433;-73
2023/05/23 01:16:17;;;;;;;6.70;6.00;;;16.00;72.20;;;;;;5073160;28;20379;-73
2023/05/23 01:19:07;;;;;;;8.60;6.40;;;15.90;72.20;;;;;;5072983;28;20411;-72
2023/05/23 01:21:34;;;;;;;8.70;6.38;;;16.00;71.80;;;;;;5073862;28;20387;-79
2023/05/23 01:24:20;;;;;;;8.30;6.13;;;15.90;71.50;;;;;;5092923;28;20444;-73
2023/05/23 01:26:52;;;;;;;7.95;5.70;;;15.90;71.70;;;;;;5093168;28;20396;-73
2023/05/23 01:29:27;;;;;;;8.57;6.30;;;15.90;71.50;;;;;;5092800;28;20417;-73
2023/05/23 01:31:56;;;;;;;7.45;6.30;;;16.00;72.00;;;;;;5092254;28;20751;-74
2023/05/23 01:34:21;;;;;;;8.65;6.10;;;16.00;71.30;;;;;;5092930;28;20421;-73
2023/05/23 01:36:52;;;;;;;9.25;6.70;;;16.00;71.50;;;;;;5091667;28;20417;-72
2023/05/23 01:39:18;;;;;;;9.10;7.10;;;16.00;72.50;;;;;;5091595;28;20851;-73
2023/05/23 01:41:44;;;;;;;11.20;6.72;;;15.90;73.30;;;;;;5089798;28;20472;-72
2023/05/23 01:44:10;;;;;;;11.82;7.40;;;16.00;73.80;;;;;;5091129;28;20381;-73
2023/05/23 01:46:38;;;;;;;9.70;7.40;;;16.00;73.80;;;;;;5091060;28;20404;-72
2023/05/23 01:49:10;;;;;;;11.10;7.10;;;16.00;73.70;;;;;;5090978;28;20446;-73
2023/05/23 01:51:36;;;;;;;9.35;7.03;;;16.10;73.10;;;;;;5091210;28;20443;-73
2023/05/23 01:54:02;;;;;;;9.80;7.20;;;16.10;73.40;;;;;;5092006;28;20781;-72
2023/05/23 01:56:27;;;;;;;11.75;7.38;;;16.10;73.60;;;;;;5095828;28;20389;-73
2023/05/23 01:58:53;;;;;;;10.70;7.07;;;16.10;73.80;;;;;;5102497;28;20390;-74
2023/05/23 02:01:19;;;;;;;11.43;7.72;;;16.00;73.80;;;;;;5103495;28;20389;-74
2023/05/23 02:03:45;;;;;;;10.05;7.40;;;15.90;74.80;;;;;;5091734;28;20378;-73
2023/05/23 02:06:10;;;;;;;10.63;7.97;;;16.00;74.50;;;;;;5092267;28;20402;-73
2023/05/23 02:08:36;;;;;;;12.90;7.80;;;16.00;74.90;;;;;;5092222;28;20454;-73
2023/05/23 02:11:02;;;;;;;13.52;8.00;;;15.90;73.80;;;;;;5090732;28;20428;-72
2023/05/23 02:13:27;;;;;;;11.07;7.23;;;15.90;74.80;;;;;;5091201;28;20425;-74
2023/05/23 02:15:53;;;;;;;11.43;7.93;;;15.90;73.50;;;;;;5091768;28;20385;-73
2023/05/23 02:18:19;;;;;;;10.43;7.57;;;15.90;74.50;;;;;;5093221;28;20464;-73
2023/05/23 02:20:45;;;;;;;9.13;7.40;;;15.90;74.20;;;;;;5095283;28;20451;-73
2023/05/23 02:23:11;;;;;;;12.00;7.90;;;15.90;74.60;;;;;;5092951;28;20386;-73
2023/05/23 02:25:37;;;;;;;14.88;7.55;;;15.90;74.80;;;;;;5093457;28;20863;-74
2023/05/23 02:28:02;;;;;;;13.27;8.38;;;16.00;74.00;;;;;;5095026;28;20461;-73
2023/05/23 02:30:28;;;;;;;16.70;8.00;;;16.00;73.80;;;;;;5094615;28;20382;-74
2023/05/23 02:32:54;;;;;;;12.30;7.47;;;15.90;73.80;;;;;;5094842;28;20388;-74
2023/05/23 02:35:19;;;;;;;10.60;8.00;;;15.90;74.00;;;;;;5095569;28;20385;-74
2023/05/23 02:37:45;;;;;;;13.53;7.93;;;15.80;75.00;;;;;;5095214;28;20460;-73
2023/05/23 02:40:11;;;;;;;12.60;7.60;;;15.90;75.40;;;;;;5095249;28;20495;-72
2023/05/23 02:42:36;;;;;;;10.27;7.65;;;15.90;75.60;;;;;;5095489;28;20457;-73
2023/05/23 02:45:02;;;;;;;12.68;8.30;;;15.90;75.00;;;;;;5096221;28;20954;-73
2023/05/23 02:47:27;;;;;;;12.65;8.55;;;15.90;75.40;;;;;;5097401;28;20373;-73
2023/05/23 02:49:53;;;;;;;10.60;7.87;;;15.90;75.70;;;;;;5097653;28;20388;-75
2023/05/23 02:52:18;;;;;;;11.47;8.00;;;15.90;74.50;;;;;;5099851;28;20457;-73
2023/05/23 02:54:44;;;;;;;15.02;9.30;;;15.90;75.10;;;;;;5096692;28;20390;-73
2023/05/23 02:57:10;;;;;;;12.73;8.60;;;15.90;75.20;;;;;;5095406;28;20378;-73
2023/05/23 02:59:35;;;;;;;16.60;10.00;;;15.90;75.30;;;;;;5098917;28;20397;-73
2023/05/23 03:02:01;;;;;;;17.50;9.10;;;15.80;76.70;;;;;;5097889;28;20378;-73
2023/05/23 03:04:26;;;;;;;18.30;9.10;;;15.80;77.10;;;;;;5098180;28;20393;-73
2023/05/23 03:06:53;;;;;;;14.32;9.98;;;15.80;78.10;;;;;;5097307;28;20720;-73
2023/05/23 03:09:19;;;;;;;18.10;10.90;;;15.70;78.90;;;;;;5098076;28;20378;-72
2023/05/23 03:11:45;;;;;;;16.02;9.63;;;15.70;78.90;;;;;;5094197;28;20386;-72
2023/05/23 03:14:11;;;;;;;21.27;10.80;;;15.70;78.20;;;;;;5093844;28;20869;-73
2023/05/23 03:16:36;;;;;;;22.80;10.65;;;15.70;78.50;;;;;;5093682;28;20407;-73
2023/05/23 03:19:03;;;;;;;16.80;10.57;;;15.70;78.20;;;;;;5093840;28;20386;-74
2023/05/23 03:21:30;;;;;;;19.40;11.65;;;15.70;77.60;;;;;;5094262;28;20728;-74
2023/05/23 03:23:56;;;;;;;20.67;12.00;;;15.70;79.00;;;;;;5094035;28;20426;-75
2023/05/23 03:26:22;;;;;;;22.10;10.70;;;15.70;78.80;;;;;;5094247;28;20386;-74
2023/05/23 03:28:48;;;;;;;20.83;10.43;;;15.60;78.60;;;;;;5094282;28;20378;-75
2023/05/23 03:31:14;;;;;;;18.92;10.30;;;15.60;78.30;;;;;;5092071;28;20897;-74
2023/05/23 03:33:40;;;;;;;12.90;9.40;;;15.60;78.10;;;;;;5093939;28;20386;-75
2023/05/23 03:36:05;;;;;;;12.15;8.07;;;15.60;77.30;;;;;;5093551;28;20791;-74
2023/05/23 03:38:31;;;;;;;14.45;8.50;;;15.50;76.40;;;;;;5092563;28;20520;-74
2023/05/23 03:40:56;;;;;;;13.65;8.30;;;15.60;75.80;;;;;;5093267;28;20398;-75
2023/05/23 03:43:22;;;;;;;15.40;8.07;;;15.60;76.10;;;;;;5093722;28;20386;-75
2023/05/23 03:45:48;;;;;;;12.30;7.87;;;15.60;75.80;;;;;;5094011;28;20381;-75
2023/05/23 03:48:13;;;;;;;14.98;8.18;;;15.60;76.20;;;;;;5093820;28;20382;-74
2023/05/23 03:50:39;;;;;;;15.57;8.20;;;15.50;76.90;;;;;;5094157;28;20382;-75
2023/05/23 03:53:04;;;;;;;16.45;9.07;;;15.60;76.30;;;;;;5094902;28;20469;-75
2023/05/23 03:55:31;;;;;;;13.57;7.30;;;15.60;76.70;;;;;;5094557;28;20381;-75
2023/05/23 03:57:57;;;;;;;14.02;8.40;;;15.60;76.10;;;;;;5094781;28;20461;-75
2023/05/23 04:00:22;;;;;;;11.50;7.90;;;15.60;76.30;;;;;;5094546;28;20473;-75
2023/05/23 04:02:50;;;;;;;19.42;8.50;;;15.60;76.50;;;;;;5095199;28;20431;-74
2023/05/23 04:05:22;;;;;;;14.18;8.00;;;15.60;76.60;;;;;;5098249;28;20402;-74
2023/05/23 04:07:50;;;;;;;14.43;8.47;;;15.70;77.20;;;;;;5094232;28;20370;-75
2023/05/23 04:10:16;;;;;;;17.00;8.75;;;15.60;76.80;;;;;;5095801;28;20378;-74
2023/05/23 04:12:41;;;;;;;14.23;7.30;;;15.60;78.00;;;;;;5099241;28;20889;-74
2023/05/23 04:15:07;;;;;;;13.57;9.40;;;15.50;79.60;;;;;;5099671;28;20438;-75
2023/05/23 04:17:34;;;;;;;14.60;9.82;;;15.50;80.30;;;;;;5104888;28;20382;-75
2023/05/23 04:19:59;;;;;;;16.70;9.45;;;15.50;80.60;;;;;;5105562;28;20413;-73
2023/05/23 04:22:25;;;;;;;21.38;9.00;;;15.50;80.70;;;;;;5107901;28;20385;-74
2023/05/23 04:24:50;;;;;;;17.33;9.97;;;15.50;81.50;;;;;;5108962;28;20378;-72
2023/05/23 04:27:16;;;;;;;14.87;9.03;;;15.50;82.10;;;;;;5108890;28;20382;-74
2023/05/23 04:29:43;;;;;;;19.37;10.80;;;15.40;82.40;;;;;;5110428;28;20453;-74
2023/05/23 04:32:08;;;;;;;20.90;11.00;;;15.40;83.30;;;;;;5110660;28;20382;-72
2023/05/23 04:34:34;;;;;;;19.97;10.70;;;15.40;83.60;;;;;;5111501;28;20396;-74
2023/05/23 04:37:01;;;;;;;22.53;11.40;;;15.50;83.50;;;;;;5108576;28;20397;-74
2023/05/23 04:39:28;;;;;;;19.27;10.68;;;15.50;82.00;;;;;;5101399;28;20421;-74
2023/05/23 04:41:54;;;;;;;19.67;10.10;;;15.40;83.00;;;;;;5105927;28;20406;-74
2023/05/23 04:44:19;;;;;;;16.65;9.85;;;15.40;84.50;;;;;;5108187;28;20382;-74
2023/05/23 04:46:45;;;;;;;19.95;9.75;;;15.30;84.30;;;;;;5101730;28;20421;-74
2023/05/23 04:49:11;;;;;;;19.37;11.20;;;15.40;84.40;;;;;;5093153;28;20389;-75
2023/05/23 04:51:37;;;;;;;18.83;10.15;;;15.30;83.90;;;;;;5094373;28;20778;-73
2023/05/23 04:54:03;;;;;;;19.87;11.60;;;15.30;84.80;;;;;;5095945;28;20398;-73
2023/05/23 04:56:29;;;;;;;16.40;10.60;;;15.40;84.70;;;;;;5098098;28;20390;-75
2023/05/23 04:58:55;;;;;;;18.07;11.40;;;15.40;83.60;;;;;;5098429;28;20388;-76
2023/05/23 05:01:23;;;;;;;21.20;11.13;;;15.40;84.00;;;;;;5091777;28;20382;-76
2023/05/23 05:03:49;;;;;;;19.58;11.55;;;15.50;84.00;;;;;;5093078;28;20777;-76
2023/05/23 05:06:16;;;;;;;16.80;10.43;;;15.50;84.80;;;;;;5096545;28;20389;-74
2023/05/23 05:08:41;;;;;;;19.80;11.00;;;15.40;84.80;;;;;;5096158;28;20409;-74
2023/05/23 05:11:08;;;;;;;17.10;10.60;;;15.30;85.80;;;;;;5095573;28;20378;-76
2023/05/23 05:13:34;;;;;;;20.92;11.90;;;15.30;86.80;;;;;;5095296;28;20393;-74
2023/05/23 05:15:59;;;;;;;20.05;10.90;;;15.30;87.70;;;;;;5097956;28;20385;-72
2023/05/23 05:18:26;;;;;;;18.33;11.80;;;15.30;87.00;;;;;;5096064;28;20400;-75
2023/05/23 05:20:51;;;;;;;22.60;11.23;;;15.40;87.30;;;;;;5094944;28;20561;-75
2023/05/23 05:23:17;;;;;;;20.80;12.80;;;15.30;87.00;;;;;;5097005;28;20382;-75
2023/05/23 05:25:43;;;;;;;20.53;13.27;;;15.20;87.90;;;;;;5102468;28;20451;-75
2023/05/23 05:28:08;;;;;;;23.80;11.60;;;15.30;88.00;;;;;;5096203;28;20385;-73
2023/05/23 05:30:34;;;;;;;21.17;12.70;;;15.40;87.00;;;;;;5096694;28;20386;-75
2023/05/23 05:33:02;;;;;;;20.00;12.30;;;15.40;85.80;;;;;;5096662;28;20377;-74
2023/05/23 05:35:31;;;;;;;21.92;12.30;;;15.40;86.30;;;;;;5098179;28;20378;-73
2023/05/23 05:37:57;;;;;;;16.23;10.77;;;15.40;85.90;;;;;;5097962;28;20388;-74
2023/05/23 05:40:23;;;;;;;21.10;12.45;;;15.40;85.20;;;;;;5098137;28;20740;-73
2023/05/23 05:42:49;;;;;;;24.52;13.60;;;15.30;87.00;;;;;;5094440;28;20477;-72
2023/05/23 05:45:15;;;;;;;20.95;13.00;;;15.30;87.50;;;;;;5094695;28;20465;-72
2023/05/23 05:47:40;;;;;;;23.25;13.25;;;15.40;87.60;;;;;;5091983;28;20866;-75
2023/05/23 05:50:09;;;;;;;23.90;13.65;;;15.40;86.40;;;;;;5092603;28;20386;-72
2023/05/23 05:52:38;;;;;;;27.00;12.88;;;15.40;86.70;;;;;;5091745;28;20389;-74
2023/05/23 05:55:10;;;;;;;21.67;12.45;;;15.40;86.60;;;;;;5091287;28;20746;-73
2023/05/23 05:57:38;;;;;;;24.85;13.75;;;15.30;86.50;;;;;;5091507;28;20389;-74
2023/05/23 06:00:17;;;;;;;21.20;12.35;;;15.30;86.70;;;;;;5093166;28;20398;-72
2023/05/23 06:02:46;;;;;;;27.52;13.23;;;15.20;87.40;;;;;;5095407;28;20382;-74
2023/05/23 06:05:12;;;;;;;22.17;11.73;;;15.30;87.30;;;;;;5095748;28;20374;-73
2023/05/23 06:07:39;;;;;;;22.60;13.75;;;15.30;86.00;;;;;;5095278;28;20719;-74
2023/05/23 06:10:06;;;;;;;28.80;13.07;;;15.30;86.00;;;;;;5096505;28;20393;-74
2023/05/23 06:12:34;;;;;;;21.55;13.35;;;15.30;85.30;;;;;;5096851;28;20684;-73
2023/05/23 06:15:00;;;;;;;23.23;14.77;;;15.30;84.80;;;;;;5097378;28;20378;-73
2023/05/23 06:17:26;;;;;;;22.17;13.85;;;15.40;82.30;;;;;;5095614;28;20393;-73
2023/05/23 06:19:52;;;;;;;21.88;12.00;;;15.50;82.40;;;;;;5095195;28;20569;-73
2023/05/23 06:22:17;;;;;;;18.70;12.17;;;15.50;80.40;;;;;;5095537;28;20761;-72
2023/05/23 06:24:43;;;;;;;19.63;11.43;;;15.50;79.10;;;;;;5095291;28;20809;-72
2023/05/23 06:27:08;;;;;;;20.05;10.50;;;15.50;77.90;;;;;;5095809;28;20721;-73
2023/05/23 06:29:36;;;;;;;21.98;13.55;;;15.50;77.40;;;;;;5096115;28;20789;-73
2023/05/23 06:32:02;;;;;;;23.45;13.43;;;15.60;77.60;;;;;;5095598;28;20407;-74
2023/05/23 06:34:28;;;;;;;18.27;11.55;;;15.70;77.00;;;;;;5095098;28;20377;-73
2023/05/23 06:36:54;;;;;;;18.77;9.77;;;15.70;73.70;;;;;;5094854;28;20485;-74
2023/05/23 06:39:19;;;;;;;17.60;10.60;;;15.70;72.80;;;;;;5094105;28;20402;-73
2023/05/23 06:41:46;;;;;;;16.45;10.35;;;15.70;73.40;;;;;;5097306;28;20389;-72
2023/05/23 06:44:11;;;;;;;20.90;10.80;;;15.60;74.10;;;;;;5095615;28;20390;-74
2023/05/23 06:46:37;;;;;;;19.23;9.53;;;15.70;73.70;;;;;;5094354;28;20385;-72
2023/05/23 06:49:02;;;;;;;16.07;9.70;;;15.60;73.20;;;;;;5098018;28;20457;-71
2023/05/23 06:51:28;;;;;;;17.95;10.15;;;15.60;73.20;;;;;;5107031;28;20382;-73
2023/05/23 06:53:55;;;;;;;17.80;10.85;;;15.70;72.50;;;;;;5104465;28;20393;-73
2023/05/23 06:56:21;;;;;;;20.70;9.90;;;15.80;71.80;;;;;;5108570;28;20388;-73
2023/05/23 06:58:47;;;;;;;21.45;11.55;;;15.80;70.30;;;;;;5104706;28;20374;-74
2023/05/23 07:01:13;;;;;;;16.60;10.63;;;15.90;70.60;;;;;;5094977;28;20455;-73
2023/05/23 07:03:40;;;;;;;17.03;10.30;;;16.00;68.80;;;;;;5095339;28;20374;-73
2023/05/23 07:06:06;;;;;;;22.90;12.00;;;16.00;67.30;;;;;;5096476;28;20374;-72
2023/05/23 07:08:32;;;;;;;21.85;11.55;;;16.00;67.70;;;;;;5101684;28;20396;-73
2023/05/23 07:10:58;;;;;;;18.33;10.50;;;16.10;67.20;;;;;;5100153;28;20421;-72
2023/05/23 07:13:23;;;;;;;26.50;12.85;;;16.00;66.10;;;;;;5100856;28;20781;-73
2023/05/23 07:15:49;;;;;;;17.55;9.55;;;16.00;66.80;;;;;;5102013;28;20418;-72
2023/05/23 07:18:14;;;;;;;20.17;10.90;;;16.00;65.80;;;;;;5104880;28;20385;-74
2023/05/23 07:20:40;;;;;;;17.50;9.60;;;16.30;64.40;;;;;;5097098;28;20410;-73
2023/05/23 07:23:05;;;;;;;19.83;9.70;;;16.30;61.50;;;;;;5096708;28;20723;-74
2023/05/23 07:25:31;;;;;;;19.00;10.10;;;16.20;62.40;;;;;;5097290;28;20385;-73
2023/05/23 07:27:56;;;;;;;19.63;10.00;;;16.20;63.30;;;;;;5095746;28;20389;-73
2023/05/23 07:30:22;;;;;;;17.33;8.30;;;16.00;64.40;;;;;;5095197;28;20381;-72
2023/05/23 07:32:48;;;;;;;19.20;9.93;;;15.90;64.00;;;;;;5094868;28;20439;-74
2023/05/23 07:35:14;;;;;;;19.35;10.27;;;15.80;66.90;;;;;;5095984;28;20381;-72
2023/05/23 07:37:40;;;;;;;18.40;9.90;;;15.90;66.30;;;;;;5097057;28;20473;-74
2023/05/23 07:40:08;;;;;;;14.13;9.50;;;15.90;66.00;;;;;;5097828;28;20421;-73
2023/05/23 07:42:33;;;;;;;17.33;9.50;;;15.90;66.00;;;;;;5095783;28;20481;-74
2023/05/23 07:44:59;;;;;;;18.90;9.43;;;15.80;67.20;;;;;;5097505;28;20374;-74
2023/05/23 07:47:26;;;;;;;19.60;9.23;;;15.80;67.40;;;;;;5101481;28;20404;-73
2023/05/23 07:49:52;;;;;;;20.95;11.00;;;15.80;68.80;;;;;;5096846;28;20393;-74
2023/05/23 07:52:18;;;;;;;20.10;10.70;;;15.80;67.70;;;;;;5094576;28;20389;-73
2023/05/23 07:54:43;;;;;;;19.42;10.23;;;15.90;68.00;;;;;;5093617;28;20382;-74
2023/05/23 07:57:09;;;;;;;17.40;10.00;;;15.70;69.10;;;;;;5093518;28;20863;-73
2023/05/23 07:59:35;;;;;;;19.90;10.03;;;15.70;70.10;;;;;;5093241;28;20402;-74
2023/05/23 08:02:01;;;;;;;16.27;10.97;;;15.70;69.30;;;;;;5093741;28;20377;-73
2023/05/23 08:04:28;;;;;;;23.27;10.70;;;15.70;68.40;;;;;;5094170;28;20474;-74
2023/05/23 08:06:54;;;;;;;21.88;11.43;;;15.70;67.30;;;;;;5093303;28;20805;-73
2023/05/23 08:09:21;;;;;;;23.40;14.20;;;15.70;65.20;;;;;;5094723;28;20385;-75
2023/05/23 08:11:47;;;;;;;32.05;15.65;;;15.60;65.70;;;;;;5095050;28;20405;-74
2023/05/23 08:14:12;;;;;;;24.45;12.75;;;15.70;65.20;;;;;;5094324;28;20382;-73
2023/05/23 08:16:38;;;;;;;29.50;15.60;;;15.70;67.20;;;;;;5094565;28;20397;-74
2023/05/23 08:19:04;;;;;;;25.93;12.70;;;15.50;65.90;;;;;;5094233;28;20461;-72
2023/05/23 08:21:30;;;;;;;24.37;12.80;;;15.40;65.50;;;;;;5093955;28;20402;-74
2023/05/23 08:23:56;;;;;;;24.40;12.20;;;15.40;65.30;;;;;;5100921;28;20861;-74
2023/05/23 08:26:22;;;;;;;19.27;9.45;;;15.40;65.80;;;;;;5097988;28;20378;-73
2023/05/23 08:28:47;;;;;;;21.25;10.38;;;15.20;65.00;;;;;;5094520;28;20479;-73
2023/05/23 08:31:13;;;;;;;25.57;12.10;;;15.20;66.90;;;;;;5093768;28;20428;-73
2023/05/23 08:33:38;;;;;;;20.40;12.30;;;15.20;66.10;;;;;;5111397;28;20385;-75
2023/05/23 08:36:04;;;;;;;26.77;11.90;;;15.20;66.80;;;;;;5098566;28;20385;-73
2023/05/23 08:38:30;;;;;;;31.30;15.25;;;14.90;69.90;;;;;;5093082;28;20386;-72
2023/05/23 08:40:59;;;;;;;27.83;15.00;;;14.90;72.10;;;;;;5092538;28;20401;-73
2023/05/23 08:43:25;;;;;;;27.75;14.02;;;14.90;72.10;;;;;;5093046;28;20382;-73
2023/05/23 08:45:51;;;;;;;26.73;14.10;;;15.00;70.50;;;;;;5093895;28;20385;-73
2023/05/23 08:48:19;;;;;;;29.05;16.25;;;15.00;68.10;;;;;;5094040;28;20465;-73
2023/05/23 08:50:46;;;;;;;27.98;13.77;;;14.90;70.80;;;;;;5093220;28;20378;-73
2023/05/23 08:53:19;;;;;;;27.30;14.63;;;14.90;69.10;;;;;;5093329;28;20415;-74
2023/05/23 08:55:50;;;;;;;25.40;14.10;;;15.00;69.70;;;;;;5101790;28;20390;-73
2023/05/23 08:58:19;;;;;;;25.53;11.70;;;15.10;67.10;;;;;;5092191;28;20887;-73
2023/05/23 09:00:45;;;;;;;24.40;12.00;;;15.20;64.10;;;;;;5093943;28;20678;-72
2023/05/23 09:03:13;;;;;;;28.58;12.70;;;15.40;62.50;;;;;;5091358;28;20845;-72
2023/05/23 09:05:40;;;;;;;26.70;15.33;;;15.20;62.90;;;;;;5091024;28;20415;-74
2023/05/23 09:08:06;;;;;;;35.55;16.30;;;15.20;65.80;;;;;;5092400;28;20378;-73
2023/05/23 09:10:31;;;;;;;37.00;21.97;;;15.20;64.60;;;;;;5091943;28;20386;-73
2023/05/23 09:12:58;;;;;;;42.73;24.20;;;15.00;67.90;;;;;;5092344;28;20378;-72
2023/05/23 09:15:24;;;;;;;39.33;18.53;;;15.10;68.90;;;;;;5092736;28;20445;-73
2023/05/23 09:17:50;;;;;;;31.00;15.35;;;15.30;65.20;;;;;;5093803;28;20382;-75
2023/05/23 09:20:17;;;;;;;27.08;15.90;;;15.40;61.20;;;;;;5108890;22;20813;-74
2023/05/23 09:22:47;;;;;;;24.58;15.00;;;15.40;61.30;;;;;;5112282;28;20377;-74
2023/05/23 09:25:13;;;;;;;21.52;10.05;;;15.40;61.80;;;;;;5113088;28;20373;-74
2023/05/23 09:27:38;;;;;;;25.00;13.68;;;14.90;64.80;;;;;;5112269;28;20831;-74
2023/05/23 09:30:08;;;;;;;26.80;12.10;;;14.80;64.20;;;;;;5112424;28;20447;-74
2023/05/23 09:32:34;;;;;;;22.30;11.00;;;14.90;62.90;;;;;;5112201;28;20376;-74
2023/05/23 09:35:05;;;;;;;21.60;9.73;;;14.90;60.00;;;;;;5111128;28;20480;-74
2023/05/23 09:37:34;;;;;;;21.58;11.70;;;14.90;61.70;;;;;;5112065;28;20483;-73
2023/05/23 09:40:09;;;;;;;24.25;10.68;;;15.00;62.70;;;;;;5113192;28;20407;-74
2023/05/23 09:42:40;;;;;;;24.13;11.18;;;15.10;62.60;;;;;;5114116;28;20469;-74
2023/05/23 09:45:06;;;;;;;24.05;10.73;;;15.00;62.70;;;;;;5114051;28;20852;-74
2023/05/23 09:47:32;;;;;;;20.13;8.75;;;14.70;65.20;;;;;;5112496;28;20383;-74
2023/05/23 09:49:57;;;;;;;26.63;14.40;;;14.40;65.60;;;;;;5112629;28;20380;-74
2023/05/23 09:52:23;;;;;;;29.23;13.60;;;14.20;69.30;;;;;;5112571;28;20403;-74
2023/05/23 09:54:48;;;;;;;22.40;9.23;;;14.20;70.60;;;;;;5110785;28;20392;-74
2023/05/23 09:57:16;;;;;;;21.65;11.25;;;14.10;69.30;;;;;;5112048;28;20418;-73
2023/05/23 09:59:48;;;;;;;35.28;19.58;;;13.90;71.30;;;;;;5111945;28;20400;-72
2023/05/23 10:02:15;;;;;;;28.90;14.68;;;14.10;70.30;;;;;;5111692;28;20372;-74
2023/05/23 10:04:42;;;;;;;29.17;11.80;;;14.10;68.80;;;;;;5111534;28;20381;-74
2023/05/23 10:07:16;;;;;;;24.70;11.30;;;14.30;65.30;;;;;;5111657;28;20384;-75
2023/05/23 10:09:50;;;;;;;35.88;17.05;;;14.40;66.20;;;;;;5112238;28;20373;-73
2023/05/23 10:12:43;;;;;;;61.53;31.60;;;14.50;63.80;;;;;;5111429;28;20481;-74
2023/05/23 10:15:12;;;;;;;58.40;31.30;;;14.50;63.10;;;;;;5111974;28;20384;-73
2023/05/23 10:18:06;;;;;;;47.38;26.02;;;14.60;61.30;;;;;;5112206;28;20384;-73
2023/05/23 10:20:33;;;;;;;60.10;29.48;;;14.50;60.30;;;;;;5112746;28;20403;-73
2023/05/23 10:23:01;;;;;;;59.28;29.50;;;14.50;62.60;;;;;;5111774;28;20744;-73
2023/05/23 10:25:27;;;;;;;39.25;22.05;;;14.40;61.80;;;;;;5111558;28;20460;-73
2023/05/23 10:27:57;;;;;;;21.88;11.73;;;14.40;60.80;;;;;;5111636;28;20384;-73
2023/05/23 10:30:26;;;;;;;20.38;10.55;;;14.20;58.90;;;;;;5111484;28;20412;-75
2023/05/23 10:32:54;;;;;;;21.90;9.82;;;14.40;56.30;;;;;;5111604;28;20388;-75
2023/05/23 10:35:40;;;;;;;18.70;8.38;;;14.80;50.70;;;;;;5111127;28;20906;-74
2023/05/23 10:38:25;;;;;;;15.38;8.00;;;15.10;47.70;;;;;;5111678;28;20445;-74
2023/05/23 10:41:05;;;;;;;17.77;8.10;;;15.30;45.70;;;;;;5111365;28;20396;-74
2023/05/23 10:43:56;;;;;;;20.90;8.00;;;15.70;42.40;;;;;;5111541;28;20802;-74
2023/05/23 10:46:22;;;;;;;13.30;7.97;;;16.20;39.00;;;;;;5113499;28;20717;-75
2023/05/23 10:48:52;;;;;;;16.95;8.40;;;16.50;37.60;;;;;;5115655;28;20464;-74
2023/05/23 10:51:19;;;;;;;17.85;8.38;;;16.80;32.50;;;;;;5114955;28;20532;-75
2023/05/23 10:53:46;;;;;;;18.27;9.63;;;16.60;34.20;;;;;;5115289;28;20377;-72
2023/05/23 10:56:22;;;;;;;18.47;9.53;;;16.60;32.40;;;;;;5115356;28;20372;-73
2023/05/23 10:58:55;;;;;;;18.83;11.25;;;17.00;33.10;;;;;;5115542;28;20533;-73
2023/05/23 11:01:21;;;;;;;21.65;11.40;;;17.30;30.90;;;;;;5115197;28;20396;-73
2023/05/23 11:03:47;;;;;;;19.98;11.50;;;17.40;30.40;;;;;;5115315;28;20372;-74
2023/05/23 11:06:28;;;;;;;17.53;10.00;;;17.30;30.20;;;;;;5115141;28;20385;-73
2023/05/23 11:09:04;;;;;;;24.03;10.03;;;17.00;29.90;;;;;;5113750;28;20422;-74
2023/05/23 11:11:49;;;;;;;14.48;8.85;;;16.90;32.00;;;;;;5115242;28;20389;-73
2023/05/23 11:14:14;;;;;;;17.48;8.65;;;17.10;31.10;;;;;;5116074;28;20392;-73
2023/05/23 11:16:41;;;;;;;21.60;9.15;;;16.80;30.60;;;;;;5116182;28;20380;-73
2023/05/23 11:19:19;;;;;;;18.70;8.73;;;16.60;31.30;;;;;;5115971;28;20385;-74
2023/05/23 11:21:49;;;;;;;15.68;7.35;;;16.40;33.10;;;;;;5115295;28;20389;-73
2023/05/23 11:24:16;;;;;;;17.83;9.17;;;16.40;33.20;;;;;;5114786;28;20391;-73
2023/05/23 11:26:58;;;;;;;20.50;9.60;;;16.30;33.40;;;;;;5116546;28;20442;-74
2023/05/23 11:29:30;;;;;;;16.50;8.63;;;16.50;34.30;;;;;;5116115;28;20389;-74
2023/05/23 11:31:56;;;;;;;17.05;6.95;;;16.40;34.20;;;;;;5115790;28;20376;-74
2023/05/23 11:34:25;;;;;;;13.45;7.72;;;15.90;34.10;;;;;;5114862;28;20910;-74
2023/05/23 11:36:55;;;;;;;17.38;7.13;;;15.60;36.30;;;;;;5116455;28;20380;-73
2023/05/23 11:39:20;;;;;;;18.65;7.65;;;15.60;35.60;;;;;;5116351;28;20722;-73
2023/05/23 11:41:59;;;;;;;16.08;7.50;;;15.70;34.70;;;;;;5118094;28;20372;-73
2023/05/23 11:44:25;;;;;;;18.15;8.15;;;15.80;34.50;;;;;;5120405;28;20901;-72
2023/05/23 11:47:05;;;;;;;16.60;7.57;;;16.20;33.30;;;;;;5122255;28;20415;-73
2023/05/23 11:49:34;;;;;;;14.48;7.60;;;16.50;30.10;;;;;;5124261;28;20490;-73
2023/05/23 11:52:01;;;;;;;14.88;7.00;;;16.60;30.90;;;;;;5121891;28;20458;-73
2023/05/23 11:54:27;;;;;;;20.60;8.60;;;16.80;27.30;;;;;;5119435;28;20376;-74
2023/05/23 11:56:54;;;;;;;12.02;5.78;;;17.10;27.80;;;;;;5114795;28;20391;-73
2023/05/23 11:59:21;;;;;;;14.10;7.47;;;17.10;27.30;;;;;;5114495;28;20904;-73
2023/05/23 12:01:47;;;;;;;18.85;8.40;;;16.40;28.90;;;;;;5113819;28;20395;-74
2023/05/23 12:04:12;;;;;;;14.30;7.45;;;16.20;31.80;;;;;;5113988;28;20868;-74
2023/05/23 12:06:41;;;;;;;20.92;7.50;;;16.10;32.90;;;;;;5113790;28;20380;-73
2023/05/23 12:09:10;;;;;;;15.48;7.63;;;16.10;32.70;;;;;;5113285;28;20410;-73
2023/05/23 12:11:36;;;;;;;24.17;7.90;;;16.30;32.70;;;;;;5113876;28;20800;-73
2023/05/23 12:14:05;;;;;;;19.50;7.70;;;16.60;31.20;;;;;;5113111;28;20407;-75
2023/05/23 12:16:32;;;;;;;18.95;7.80;;;17.00;29.80;;;;;;5113355;28;20380;-74
2023/05/23 12:18:58;;;;;;;18.42;6.95;;;17.50;27.20;;;;;;5113700;28;20369;-73
2023/05/23 12:21:46;;;;;;;21.37;7.67;;;17.70;25.80;;;;;;5113041;28;20429;-73
2023/05/23 12:24:16;;;;;;;15.13;7.13;;;18.00;23.60;;;;;;5113805;28;20372;-73
2023/05/23 12:26:56;;;;;;;17.05;6.38;;;18.00;24.30;;;;;;5114000;28;20373;-72
2023/05/23 12:29:31;;;;;;;20.52;6.95;;;18.00;23.20;;;;;;5113158;28;20376;-73
2023/05/23 12:31:58;;;;;;;20.48;7.78;;;18.30;22.50;;;;;;5113221;28;20377;-73
2023/05/23 12:34:24;;;;;;;14.45;6.43;;;17.70;21.60;;;;;;5113320;28;20377;-73
2023/05/23 12:36:54;;;;;;;22.77;6.30;;;17.00;24.20;;;;;;5113895;28;20399;-74